Time;durP1;ratioP1;P1;durP2;ratioP2;P2;SDS_P1;SDS_P2;PMS_P1;PMS_P2;Temp;Humidity;BMP_temperature;BMP_pressure;BME280_temperature;BME280_humidity;BME280_pressure;Samples;Min_cycle;Max_cycle;Signal;HPM_P1;HPM_P2
2023/09/19 00:01:57;;;;;;;2.25;0.95;;;16.80;99.90;;;;;;5106588;28;20043;-67
2023/09/19 00:04:28;;;;;;;3.00;0.90;;;16.80;99.90;;;;;;5107097;28;20032;-67
2023/09/19 00:06:54;;;;;;;5.22;1.10;;;16.80;99.90;;;;;;5111146;28;20046;-68
2023/09/19 00:09:20;;;;;;;2.47;0.93;;;16.80;99.90;;;;;;5109333;28;20028;-67
2023/09/19 00:11:47;;;;;;;1.85;0.82;;;16.80;99.90;;;;;;5109934;28;20039;-67
2023/09/19 00:14:14;;;;;;;4.07;1.20;;;16.80;99.90;;;;;;5106591;28;20028;-68
2023/09/19 00:16:41;;;;;;;3.72;0.95;;;16.70;99.90;;;;;;5094227;28;20035;-67
2023/09/19 00:19:07;;;;;;;2.17;1.00;;;16.70;99.90;;;;;;5106751;28;20102;-66
2023/09/19 00:21:32;;;;;;;2.50;1.00;;;16.70;99.90;;;;;;5109560;28;20032;-66
2023/09/19 00:23:58;;;;;;;2.30;0.90;;;16.70;99.90;;;;;;5109292;28;20035;-66
2023/09/19 00:26:24;;;;;;;2.25;1.02;;;16.60;99.90;;;;;;5110707;28;20032;-66
2023/09/19 00:28:52;;;;;;;3.20;0.90;;;16.60;99.90;;;;;;5107993;28;20487;-65
2023/09/19 00:31:18;;;;;;;3.03;1.15;;;16.50;99.90;;;;;;5108449;28;20051;-66
2023/09/19 00:33:44;;;;;;;3.28;0.73;;;16.50;99.90;;;;;;5109332;28;20062;-67
2023/09/19 00:36:09;;;;;;;3.15;0.82;;;16.50;99.90;;;;;;5109575;28;20081;-67
2023/09/19 00:38:35;;;;;;;4.55;1.17;;;16.50;99.90;;;;;;5108800;28;20028;-67
2023/09/19 00:41:01;;;;;;;2.88;1.00;;;16.40;99.90;;;;;;5109357;28;20062;-67
2023/09/19 00:43:27;;;;;;;2.13;1.00;;;16.40;99.90;;;;;;5105902;28;20039;-66
2023/09/19 00:45:55;;;;;;;5.85;0.93;;;16.40;99.90;;;;;;5108832;28;20066;-67
2023/09/19 00:48:28;;;;;;;2.10;0.90;;;16.40;99.90;;;;;;5106508;28;20071;-66
2023/09/19 00:50:57;;;;;;;2.85;1.25;;;16.40;99.90;;;;;;5096728;28;20047;-67
2023/09/19 00:53:25;;;;;;;3.28;0.90;;;16.40;99.90;;;;;;5104773;28;20112;-66
2023/09/19 00:55:52;;;;;;;1.80;0.82;;;16.40;99.90;;;;;;5110388;28;20032;-66
2023/09/19 00:58:18;;;;;;;3.90;0.80;;;16.40;99.90;;;;;;5107589;28;20027;-68
2023/09/19 01:00:44;;;;;;;2.13;0.88;;;16.30;99.90;;;;;;5108631;28;20069;-67
2023/09/19 01:03:13;;;;;;;2.17;1.10;;;16.30;99.90;;;;;;5107540;28;20027;-66
2023/09/19 01:05:39;;;;;;;1.73;0.90;;;16.30;99.90;;;;;;5107689;28;20637;-66
2023/09/19 01:08:06;;;;;;;2.63;1.00;;;16.30;99.90;;;;;;5108177;28;20472;-66
2023/09/19 01:10:33;;;;;;;2.78;0.98;;;16.30;99.90;;;;;;5108627;28;20027;-67
2023/09/19 01:13:10;;;;;;;1.40;0.80;;;16.30;99.90;;;;;;5105521;28;20119;-66
2023/09/19 01:15:46;;;;;;;2.63;0.85;;;16.30;99.90;;;;;;5107553;28;20797;-66
2023/09/19 01:18:23;;;;;;;1.10;0.60;;;16.20;99.90;;;;;;5109251;28;20448;-66
2023/09/19 01:21:04;;;;;;;2.67;0.88;;;16.30;99.90;;;;;;5110037;28;20168;-66
2023/09/19 01:23:53;;;;;;;1.63;0.70;;;16.30;99.90;;;;;;5104288;28;20392;-66
2023/09/19 01:26:19;;;;;;;5.93;1.10;;;16.30;99.90;;;;;;5107566;28;20081;-67
2023/09/19 01:29:31;;;;;;;3.95;1.00;;;16.20;99.90;;;;;;5107587;28;20040;-66
2023/09/19 01:32:03;;;;;;;1.50;0.70;;;16.20;99.90;;;;;;5079407;28;20089;-66
2023/09/19 01:34:48;;;;;;;5.18;0.93;;;16.20;99.90;;;;;;5105541;28;20468;-66
2023/09/19 01:37:19;;;;;;;1.55;0.80;;;16.10;99.90;;;;;;5107274;28;20139;-65
2023/09/19 01:39:48;;;;;;;;;;;16.10;99.90;;;;;;5096865;28;20551;-65
2023/09/19 01:42:49;;;;;;;1.65;0.80;;;16.10;99.90;;;;;;5107080;28;20428;-66
2023/09/19 01:45:33;;;;;;;2.00;0.85;;;16.00;99.90;;;;;;5073164;28;20387;-66
2023/09/19 01:48:26;;;;;;;2.55;0.77;;;15.90;99.90;;;;;;5104959;28;20204;-64
2023/09/19 01:51:00;;;;;;;1.08;0.60;;;15.90;99.90;;;;;;5061086;28;20051;-65
2023/09/19 01:53:30;;;;;;;3.78;0.70;;;15.90;99.90;;;;;;5103183;28;20376;-66
2023/09/19 01:55:57;;;;;;;1.05;0.50;;;15.80;99.90;;;;;;5103953;28;20100;-67
2023/09/19 01:58:32;;;;;;;1.58;0.60;;;15.90;99.90;;;;;;5103741;28;20028;-66
2023/09/19 02:01:00;;;;;;;2.53;0.77;;;15.90;99.90;;;;;;5105538;28;20472;-66
2023/09/19 02:03:28;;;;;;;5.05;1.00;;;15.90;99.90;;;;;;5103125;28;20028;-66
2023/09/19 02:05:54;;;;;;;1.20;0.70;;;15.90;99.90;;;;;;5107335;28;20027;-66
2023/09/19 02:08:23;;;;;;;2.03;0.70;;;16.00;99.90;;;;;;5089539;28;20554;-68
2023/09/19 02:10:49;;;;;;;4.65;0.75;;;16.00;99.90;;;;;;5104398;28;20042;-66
2023/09/19 02:13:19;;;;;;;2.15;0.70;;;16.00;99.90;;;;;;5103105;28;20020;-66
2023/09/19 02:15:46;;;;;;;2.78;0.85;;;16.00;99.90;;;;;;5106050;28;20076;-66
2023/09/19 02:18:14;;;;;;;1.80;0.70;;;16.00;99.90;;;;;;5107314;28;20042;-68
2023/09/19 02:20:40;;;;;;;2.65;0.85;;;16.00;99.90;;;;;;5103720;28;20628;-65
2023/09/19 02:23:07;;;;;;;1.67;0.65;;;16.00;99.90;;;;;;5103922;28;20034;-66
2023/09/19 02:25:33;;;;;;;2.22;0.80;;;16.00;99.90;;;;;;5102045;28;20038;-65
2023/09/19 02:28:01;;;;;;;1.75;0.63;;;16.00;99.90;;;;;;5108534;28;20466;-66
2023/09/19 02:30:26;;;;;;;2.60;0.80;;;16.00;99.90;;;;;;5104731;28;20437;-66
2023/09/19 02:32:52;;;;;;;3.40;0.75;;;16.00;99.90;;;;;;5103915;28;20115;-65
2023/09/19 02:35:21;;;;;;;1.73;0.75;;;16.00;99.90;;;;;;5106962;28;20032;-66
2023/09/19 02:37:47;;;;;;;3.13;0.77;;;16.00;99.90;;;;;;5102980;28;20039;-65
2023/09/19 02:40:19;;;;;;;1.92;0.70;;;16.00;99.90;;;;;;5106517;28;20031;-66
2023/09/19 02:42:49;;;;;;;2.28;0.80;;;16.10;99.90;;;;;;5095346;28;20099;-66
2023/09/19 02:45:18;;;;;;;2.13;0.80;;;16.10;99.90;;;;;;5099500;28;20042;-67
2023/09/19 02:47:44;;;;;;;2.28;0.73;;;16.10;99.90;;;;;;5102250;28;20746;-66
2023/09/19 02:50:11;;;;;;;2.45;0.75;;;16.10;99.90;;;;;;5102886;28;20047;-66
2023/09/19 02:52:37;;;;;;;1.73;0.70;;;16.20;99.90;;;;;;5107465;28;20035;-65
2023/09/19 02:55:05;;;;;;;1.55;0.73;;;16.20;99.90;;;;;;5104312;28;20039;-67
2023/09/19 02:57:33;;;;;;;1.77;0.70;;;16.20;99.90;;;;;;5104256;28;20051;-66
2023/09/19 03:00:00;;;;;;;7.35;1.05;;;16.20;99.90;;;;;;5098577;28;20493;-66
2023/09/19 03:02:27;;;;;;;2.65;0.90;;;16.10;99.90;;;;;;5087547;28;20046;-68
2023/09/19 03:04:53;;;;;;;1.90;0.73;;;16.10;99.90;;;;;;5088530;28;20024;-66
2023/09/19 03:07:19;;;;;;;2.00;0.90;;;16.10;99.90;;;;;;5100118;28;20101;-68
2023/09/19 03:09:45;;;;;;;1.73;0.85;;;16.10;99.90;;;;;;5108083;28;20040;-67
2023/09/19 03:12:11;;;;;;;1.65;0.73;;;16.10;99.90;;;;;;5106606;28;20035;-66
2023/09/19 03:14:37;;;;;;;1.30;0.75;;;16.00;99.90;;;;;;5108000;28;20035;-67
2023/09/19 03:17:05;;;;;;;2.97;0.90;;;15.90;99.90;;;;;;5108586;28;20388;-68
2023/09/19 03:19:34;;;;;;;1.83;0.90;;;15.90;99.90;;;;;;5106882;28;20060;-66
2023/09/19 03:22:00;;;;;;;2.22;0.85;;;15.80;99.90;;;;;;5111659;28;20046;-68
2023/09/19 03:24:26;;;;;;;4.43;1.00;;;15.70;99.90;;;;;;5112242;28;20432;-67
2023/09/19 03:26:52;;;;;;;3.63;0.75;;;15.70;99.90;;;;;;5111362;28;20072;-67
2023/09/19 03:29:18;;;;;;;2.63;1.00;;;15.60;99.90;;;;;;5110105;28;20480;-67
2023/09/19 03:31:44;;;;;;;2.03;1.10;;;15.50;99.90;;;;;;5110268;28;20636;-67
2023/09/19 03:34:09;;;;;;;3.28;0.82;;;15.50;99.90;;;;;;5111427;28;20074;-67
2023/09/19 03:36:35;;;;;;;4.20;1.00;;;15.50;99.90;;;;;;5108413;28;20463;-67
2023/09/19 03:39:04;;;;;;;2.75;0.93;;;15.60;99.90;;;;;;5111699;28;20034;-67
2023/09/19 03:41:31;;;;;;;2.35;0.90;;;15.60;99.90;;;;;;5109761;28;20394;-66
2023/09/19 03:43:57;;;;;;;7.40;1.10;;;15.60;99.90;;;;;;5111837;28;20031;-66
2023/09/19 03:46:22;;;;;;;3.90;1.02;;;15.50;99.90;;;;;;5110565;28;20024;-67
2023/09/19 03:48:48;;;;;;;3.33;0.90;;;15.50;99.90;;;;;;5109659;28;20119;-67
2023/09/19 03:51:13;;;;;;;3.53;1.20;;;15.50;99.90;;;;;;5110677;28;20044;-67
2023/09/19 03:53:39;;;;;;;7.45;1.25;;;15.50;99.90;;;;;;5109179;28;20039;-67
2023/09/19 03:56:05;;;;;;;6.95;1.35;;;15.50;99.90;;;;;;5110759;28;20451;-67
2023/09/19 03:58:30;;;;;;;4.45;1.25;;;15.50;99.90;;;;;;5109484;28;20035;-67
2023/09/19 04:00:57;;;;;;;8.80;1.30;;;15.50;99.90;;;;;;5110257;28;20396;-65
2023/09/19 04:03:24;;;;;;;2.25;1.10;;;15.50;99.90;;;;;;5110598;28;20065;-66
2023/09/19 04:05:50;;;;;;;2.65;1.30;;;15.60;99.90;;;;;;5107504;28;20526;-67
2023/09/19 04:08:16;;;;;;;2.53;1.10;;;15.60;99.90;;;;;;5109300;28;20027;-67
2023/09/19 04:10:43;;;;;;;2.45;1.20;;;15.60;99.90;;;;;;5108765;28;20491;-68
2023/09/19 04:13:09;;;;;;;3.28;1.20;;;15.70;99.90;;;;;;5108286;28;20036;-68
2023/09/19 04:15:34;;;;;;;2.63;1.20;;;15.70;99.90;;;;;;5109625;28;20383;-67
2023/09/19 04:18:00;;;;;;;3.90;1.13;;;15.60;99.90;;;;;;5110368;28;20027;-67
2023/09/19 04:20:26;;;;;;;2.38;0.90;;;15.70;99.90;;;;;;5106854;28;20483;-69
2023/09/19 04:22:52;;;;;;;4.80;1.00;;;15.60;99.90;;;;;;5107996;28;20024;-67
2023/09/19 04:25:18;;;;;;;2.22;1.00;;;15.60;99.90;;;;;;5109879;28;20035;-67
2023/09/19 04:27:44;;;;;;;3.70;1.30;;;15.50;99.90;;;;;;5106249;28;20062;-68
2023/09/19 04:30:11;;;;;;;2.67;1.10;;;15.60;99.90;;;;;;5105216;28;20671;-67
2023/09/19 04:32:40;;;;;;;2.90;0.98;;;15.50;99.90;;;;;;5100208;28;20094;-68
2023/09/19 04:35:10;;;;;;;2.75;0.95;;;15.50;99.90;;;;;;5104518;28;20028;-67
2023/09/19 04:37:41;;;;;;;2.57;1.37;;;15.50;99.90;;;;;;5108151;28;20444;-67
2023/09/19 04:40:17;;;;;;;3.38;1.40;;;15.50;99.90;;;;;;5103839;28;20066;-67
2023/09/19 04:42:43;;;;;;;2.15;1.20;;;15.50;99.90;;;;;;5103955;28;20023;-66
2023/09/19 04:45:10;;;;;;;3.38;1.45;;;15.50;99.90;;;;;;5103730;28;20039;-67
2023/09/19 04:47:38;;;;;;;4.50;1.20;;;15.50;99.90;;;;;;5107955;28;20054;-67
2023/09/19 04:50:11;;;;;;;3.05;1.20;;;15.50;99.90;;;;;;5085418;28;20373;-67
2023/09/19 04:52:38;;;;;;;3.28;1.15;;;15.60;99.90;;;;;;5094887;28;20039;-67
2023/09/19 04:55:04;;;;;;;5.28;1.10;;;15.60;99.90;;;;;;5103398;28;20040;-69
2023/09/19 04:57:31;;;;;;;2.63;1.33;;;15.60;99.90;;;;;;5108997;28;20023;-67
2023/09/19 04:59:57;;;;;;;2.50;1.25;;;15.60;99.90;;;;;;5107201;28;20035;-66
2023/09/19 05:02:23;;;;;;;2.75;1.42;;;15.70;99.90;;;;;;5107789;28;20692;-67
2023/09/19 05:04:48;;;;;;;2.10;1.20;;;15.70;99.90;;;;;;5104692;28;20035;-69
2023/09/19 05:07:14;;;;;;;3.72;1.27;;;15.70;99.90;;;;;;5105493;28;20024;-67
2023/09/19 05:09:42;;;;;;;5.53;1.60;;;15.80;99.90;;;;;;5106508;28;20028;-67
2023/09/19 05:12:07;;;;;;;3.38;1.10;;;15.70;99.90;;;;;;5109377;28;20563;-67
2023/09/19 05:14:33;;;;;;;2.92;1.27;;;15.80;99.90;;;;;;5107021;28;20038;-68
2023/09/19 05:16:59;;;;;;;4.90;1.17;;;15.80;99.90;;;;;;5089851;28;20118;-67
2023/09/19 05:19:24;;;;;;;9.05;1.38;;;15.70;99.90;;;;;;5102691;28;20051;-68
2023/09/19 05:21:50;;;;;;;2.65;1.48;;;15.70;99.90;;;;;;5105413;28;20593;-67
2023/09/19 05:24:16;;;;;;;4.63;1.30;;;15.70;99.90;;;;;;5106813;28;20032;-67
2023/09/19 05:26:42;;;;;;;2.22;0.98;;;15.70;99.90;;;;;;5107764;28;20035;-67
2023/09/19 05:29:09;;;;;;;2.72;1.17;;;15.70;99.90;;;;;;5110257;28;20186;-66
2023/09/19 05:31:36;;;;;;;3.58;1.27;;;15.70;99.90;;;;;;5108417;28;20032;-69
2023/09/19 05:34:02;;;;;;;3.35;1.30;;;15.70;99.90;;;;;;5109060;28;20031;-67
2023/09/19 05:36:29;;;;;;;3.15;1.10;;;15.80;99.90;;;;;;5104074;28;20095;-66
2023/09/19 05:38:55;;;;;;;3.45;1.38;;;15.70;99.90;;;;;;5105923;28;20066;-67
2023/09/19 05:41:21;;;;;;;6.43;1.38;;;15.80;99.90;;;;;;5106458;28;20063;-69
2023/09/19 05:43:50;;;;;;;2.67;1.27;;;15.80;99.90;;;;;;5107450;28;20413;-69
2023/09/19 05:46:15;;;;;;;2.80;1.25;;;15.80;99.90;;;;;;5093533;28;20032;-68
2023/09/19 05:48:41;;;;;;;2.75;1.10;;;15.80;99.90;;;;;;5102809;28;20552;-67
2023/09/19 05:51:07;;;;;;;3.22;1.15;;;15.80;99.90;;;;;;5104202;28;20038;-71
2023/09/19 05:53:33;;;;;;;2.60;1.38;;;15.90;99.90;;;;;;5109765;28;20020;-72
2023/09/19 05:56:00;;;;;;;4.70;1.27;;;15.90;99.90;;;;;;5095829;28;20032;-70
2023/09/19 05:58:26;;;;;;;2.63;1.30;;;15.90;99.90;;;;;;5095945;28;20106;-69
2023/09/19 06:00:52;;;;;;;3.63;1.50;;;15.90;99.90;;;;;;5103374;28;20051;-68
2023/09/19 06:03:18;;;;;;;6.32;1.50;;;15.90;99.90;;;;;;5089553;28;20031;-69
2023/09/19 06:05:46;;;;;;;5.55;1.30;;;15.90;99.90;;;;;;5105344;28;20480;-69
2023/09/19 06:08:11;;;;;;;3.92;1.30;;;15.90;99.90;;;;;;5108727;28;20049;-69
2023/09/19 06:10:37;;;;;;;4.63;1.60;;;15.90;99.90;;;;;;5108752;28;20027;-70
2023/09/19 06:13:09;;;;;;;6.50;2.08;;;15.90;99.90;;;;;;5108548;28;20841;-69
2023/09/19 06:15:35;;;;;;;4.80;1.38;;;15.90;99.90;;;;;;5109165;28;20068;-71
2023/09/19 06:18:02;;;;;;;5.40;1.33;;;15.90;99.90;;;;;;5108818;28;20057;-69
2023/09/19 06:20:28;;;;;;;3.50;1.17;;;15.80;99.90;;;;;;5107731;28;20040;-70
2023/09/19 06:22:55;;;;;;;8.25;1.60;;;15.80;99.90;;;;;;5107547;28;20023;-71
2023/09/19 06:25:21;;;;;;;2.85;1.40;;;15.80;99.90;;;;;;5108587;28;20028;-68
2023/09/19 06:27:54;;;;;;;2.22;1.17;;;15.70;99.90;;;;;;5108353;28;20051;-70
2023/09/19 06:30:21;;;;;;;4.22;1.42;;;15.70;99.90;;;;;;5092214;28;20038;-70
2023/09/19 06:32:48;;;;;;;2.70;1.40;;;15.70;99.90;;;;;;5094883;28;20371;-69
2023/09/19 06:35:15;;;;;;;3.63;1.23;;;15.60;99.90;;;;;;5105308;28;20035;-70
2023/09/19 06:37:42;;;;;;;3.22;1.50;;;15.60;99.90;;;;;;5108371;28;20023;-70
2023/09/19 06:40:14;;;;;;;5.88;1.75;;;15.60;99.90;;;;;;5109171;28;20110;-69
2023/09/19 06:42:46;;;;;;;3.58;1.40;;;15.60;99.90;;;;;;5108363;28;20130;-70
2023/09/19 06:45:17;;;;;;;9.13;1.77;;;15.60;99.90;;;;;;5107024;28;20027;-70
2023/09/19 06:47:45;;;;;;;4.95;1.88;;;15.50;99.90;;;;;;5106172;28;20131;-71
2023/09/19 06:50:13;;;;;;;4.55;1.50;;;15.50;99.90;;;;;;5086868;28;20483;-70
2023/09/19 06:52:41;;;;;;;3.50;1.45;;;15.40;99.90;;;;;;5106194;28;20058;-73
2023/09/19 06:55:07;;;;;;;6.53;2.20;;;15.50;99.90;;;;;;5111670;28;20379;-71
2023/09/19 06:57:32;;;;;;;2.72;1.40;;;15.50;99.90;;;;;;5112462;28;20115;-71
2023/09/19 06:59:58;;;;;;;2.25;1.10;;;15.40;99.90;;;;;;5107750;28;20510;-70
2023/09/19 07:02:24;;;;;;;4.07;1.05;;;15.20;99.90;;;;;;5111978;28;20027;-71
2023/09/19 07:04:49;;;;;;;2.85;1.50;;;15.10;99.90;;;;;;5112314;28;20038;-71
2023/09/19 07:07:16;;;;;;;3.92;1.33;;;15.10;99.90;;;;;;5112022;28;20023;-70
2023/09/19 07:09:42;;;;;;;2.70;1.30;;;15.10;99.90;;;;;;5111099;28;20476;-69
2023/09/19 07:12:08;;;;;;;5.75;1.60;;;15.00;99.90;;;;;;5113062;28;20055;-71
2023/09/19 07:14:33;;;;;;;6.53;1.95;;;15.00;99.90;;;;;;5113240;28;20035;-71
2023/09/19 07:17:03;;;;;;;5.45;1.90;;;15.00;99.90;;;;;;5110915;28;20042;-70
2023/09/19 07:19:30;;;;;;;5.68;1.90;;;14.90;99.90;;;;;;5112834;28;20032;-69
2023/09/19 07:21:55;;;;;;;5.63;1.60;;;14.80;99.90;;;;;;5111644;28;20468;-70
2023/09/19 07:24:23;;;;;;;5.43;1.55;;;14.80;99.90;;;;;;5112268;28;20023;-70
2023/09/19 07:26:50;;;;;;;4.07;1.80;;;14.80;99.90;;;;;;5110791;28;20035;-69
2023/09/19 07:29:15;;;;;;;9.77;1.65;;;14.80;99.90;;;;;;5112636;28;20106;-70
2023/09/19 07:31:41;;;;;;;5.78;1.92;;;14.80;99.90;;;;;;5111712;28;20123;-71
2023/09/19 07:34:08;;;;;;;4.43;2.10;;;14.60;99.90;;;;;;5112337;28;20035;-70
2023/09/19 07:36:37;;;;;;;4.55;1.98;;;14.60;99.90;;;;;;5112429;28;20027;-70
2023/09/19 07:39:06;;;;;;;4.07;1.92;;;14.50;99.90;;;;;;5107650;28;20034;-70
2023/09/19 07:41:32;;;;;;;5.40;2.17;;;14.50;99.90;;;;;;5112091;28;20388;-70
2023/09/19 07:43:58;;;;;;;6.03;2.55;;;14.60;99.90;;;;;;5112001;28;20038;-70
2023/09/19 07:46:25;;;;;;;4.97;2.28;;;14.60;99.90;;;;;;5112269;28;20028;-70
2023/09/19 07:48:51;;;;;;;7.75;2.42;;;14.60;99.90;;;;;;5109798;28;20043;-70
2023/09/19 07:51:17;;;;;;;4.25;2.20;;;14.70;99.90;;;;;;5086417;28;20490;-69
2023/09/19 07:53:43;;;;;;;5.78;2.33;;;14.90;99.90;;;;;;5111417;28;20072;-72
2023/09/19 07:56:10;;;;;;;5.63;2.72;;;15.00;99.90;;;;;;5112159;28;20131;-70
2023/09/19 07:58:40;;;;;;;6.40;2.85;;;15.10;99.90;;;;;;5112036;28;20057;-69
2023/09/19 08:01:07;;;;;;;5.78;2.97;;;15.20;99.90;;;;;;5110607;28;20081;-69
2023/09/19 08:03:34;;;;;;;4.75;2.97;;;15.20;99.90;;;;;;5110816;28;20034;-69
2023/09/19 08:06:00;;;;;;;9.30;2.88;;;15.40;99.90;;;;;;5107412;28;20120;-70
2023/09/19 08:08:27;;;;;;;6.32;2.83;;;15.60;99.90;;;;;;5110636;28;20039;-69
2023/09/19 08:11:01;;;;;;;10.65;3.15;;;15.60;99.90;;;;;;5111011;28;20039;-70
2023/09/19 08:13:27;;;;;;;9.88;3.25;;;15.70;99.90;;;;;;5111299;28;20100;-68
2023/09/19 08:15:53;;;;;;;6.13;2.75;;;15.70;99.90;;;;;;5110811;28;20066;-70
2023/09/19 08:18:19;;;;;;;4.88;2.80;;;15.70;99.90;;;;;;5111860;28;20042;-69
2023/09/19 08:20:50;;;;;;;7.20;2.50;;;15.60;99.90;;;;;;5109624;28;20027;-70
2023/09/19 08:23:18;;;;;;;9.00;3.00;;;15.50;99.90;;;;;;5110589;28;20058;-69
2023/09/19 08:25:43;;;;;;;6.28;3.10;;;15.60;99.90;;;;;;5109894;28;20023;-71
2023/09/19 08:28:12;;;;;;;8.80;2.70;;;15.60;99.90;;;;;;5111476;28;20035;-70
2023/09/19 08:30:40;;;;;;;7.93;3.00;;;15.70;99.90;;;;;;5110665;28;20035;-69
2023/09/19 08:33:07;;;;;;;7.97;2.80;;;15.80;99.90;;;;;;5110529;28;20505;-70
2023/09/19 08:35:33;;;;;;;7.38;2.47;;;15.90;99.90;;;;;;5111253;28;20062;-69
2023/09/19 08:38:03;;;;;;;6.95;2.83;;;16.20;99.90;;;;;;5106648;28;20035;-70
2023/09/19 08:40:33;;;;;;;7.70;2.72;;;16.20;99.90;;;;;;5110414;28;20065;-70
2023/09/19 08:43:00;;;;;;;8.00;3.05;;;16.20;99.90;;;;;;5109391;28;20146;-71
2023/09/19 08:45:28;;;;;;;4.97;2.42;;;16.50;99.90;;;;;;5111074;28;20106;-68
2023/09/19 08:48:05;;;;;;;9.43;2.47;;;16.60;99.90;;;;;;5108963;28;20118;-69
2023/09/19 08:50:31;;;;;;;5.30;2.75;;;16.50;99.90;;;;;;5110870;28;20043;-69
2023/09/19 08:53:10;;;;;;;7.53;2.50;;;16.60;99.90;;;;;;5107900;28;20036;-69
2023/09/19 08:55:37;;;;;;;5.65;2.40;;;16.80;99.90;;;;;;5088247;28;20376;-68
2023/09/19 08:58:06;;;;;;;7.35;2.25;;;16.70;99.90;;;;;;5109367;28;20061;-69
2023/09/19 09:00:34;;;;;;;9.50;2.83;;;16.80;99.90;;;;;;5110841;28;20479;-69
2023/09/19 09:03:02;;;;;;;4.75;2.63;;;16.90;99.90;;;;;;5109200;28;20059;-68
2023/09/19 09:05:28;;;;;;;5.43;2.30;;;16.90;99.90;;;;;;5092073;28;20379;-69
2023/09/19 09:07:56;;;;;;;7.13;2.38;;;17.00;99.90;;;;;;5109842;28;20023;-69
2023/09/19 09:10:22;;;;;;;6.43;2.78;;;17.20;99.90;;;;;;5108602;28;20035;-71
2023/09/19 09:12:57;;;;;;;5.68;2.53;;;17.40;99.90;;;;;;5109911;28;20035;-70
2023/09/19 09:15:24;;;;;;;10.50;2.20;;;17.50;99.90;;;;;;5107025;28;20030;-68
2023/09/19 09:17:52;;;;;;;6.63;2.33;;;17.50;99.90;;;;;;5105746;28;20036;-70
2023/09/19 09:20:18;;;;;;;6.10;2.38;;;17.60;99.90;;;;;;5110601;28;20028;-68
2023/09/19 09:22:52;;;;;;;5.53;1.90;;;17.50;99.90;;;;;;5110150;28;20030;-71
2023/09/19 09:25:18;;;;;;;5.75;2.17;;;17.60;99.90;;;;;;5100918;28;20102;-71
2023/09/19 09:27:45;;;;;;;4.65;2.22;;;17.30;99.90;;;;;;5106410;28;20161;-70
2023/09/19 09:30:37;;;;;;;3.65;2.00;;;17.00;99.90;;;;;;5102906;28;20365;-68
2023/09/19 09:33:13;;;;;;;4.55;2.03;;;16.80;99.90;;;;;;5105618;28;20039;-67
2023/09/19 09:35:59;;;;;;;5.55;2.28;;;16.70;99.90;;;;;;5107311;28;20046;-67
2023/09/19 09:38:31;;;;;;;5.53;2.40;;;16.60;99.90;;;;;;5106448;28;20468;-67
2023/09/19 09:41:07;;;;;;;4.50;2.45;;;16.60;99.90;;;;;;5107241;28;20153;-67
2023/09/19 09:43:42;;;;;;;4.15;1.83;;;16.60;99.90;;;;;;5107321;28;20019;-69
2023/09/19 09:49:14;;;;;;;3.50;2.10;;;16.80;99.90;;;;;;5107743;28;20180;-69
2023/09/19 09:51:34;;;;;;;6.57;2.38;;;17.00;99.90;;;;;;5109294;28;20500;-67
2023/09/19 09:54:17;;;;;;;5.93;1.90;;;17.10;99.90;;;;;;5109195;28;20031;-66
2023/09/19 09:56:59;;;;;;;3.53;1.95;;;17.30;99.90;;;;;;5107204;28;20658;-66
2023/09/19 09:59:53;;;;;;;11.35;2.38;;;17.60;99.90;;;;;;5109556;28;20107;-67
2023/09/19 10:02:32;;;;;;;6.80;2.25;;;17.90;99.90;;;;;;5109282;28;20426;-68
2023/09/19 10:05:06;;;;;;;5.57;2.20;;;18.00;99.90;;;;;;5107754;28;20668;-67
2023/09/19 10:07:32;;;;;;;4.28;1.85;;;18.00;99.90;;;;;;5109594;28;20028;-66
2023/09/19 10:10:43;;;;;;;2.55;1.70;;;17.90;99.90;;;;;;5108705;28;20036;-66
2023/09/19 10:13:02;;;;;;;4.78;2.25;;;17.80;99.90;;;;;;5101453;28;20097;-67
2023/09/19 10:15:32;;;;;;;3.80;1.80;;;17.70;99.90;;;;;;5105298;28;20464;-66
2023/09/19 10:18:01;;;;;;;5.35;2.00;;;17.70;99.90;;;;;;5098657;28;20112;-67
2023/09/19 10:20:37;;;;;;;3.50;2.10;;;18.00;99.90;;;;;;5108406;28;20039;-69
2023/09/19 10:23:12;;;;;;;3.65;1.90;;;18.20;99.90;;;;;;5108685;28;20426;-69
2023/09/19 10:25:41;;;;;;;3.90;1.67;;;18.30;99.90;;;;;;5106950;28;20080;-68
2023/09/19 10:28:10;;;;;;;2.42;1.60;;;18.40;99.90;;;;;;5104721;28;20031;-64
2023/09/19 10:30:39;;;;;;;4.57;1.67;;;18.10;99.90;;;;;;5105607;28;20040;-68
2023/09/19 10:33:07;;;;;;;4.47;2.00;;;17.90;99.90;;;;;;5103576;28;20028;-69
2023/09/19 10:35:37;;;;;;;2.90;1.30;;;17.70;99.90;;;;;;5107953;28;20039;-68
2023/09/19 10:38:05;;;;;;;6.40;1.75;;;17.60;99.90;;;;;;5107081;28;20105;-69
2023/09/19 10:40:35;;;;;;;3.35;1.98;;;17.50;99.90;;;;;;5104143;28;20020;-68
2023/09/19 10:43:05;;;;;;;2.83;1.48;;;17.50;99.90;;;;;;5105700;28;20027;-68
2023/09/19 10:45:33;;;;;;;8.07;1.52;;;17.80;99.90;;;;;;5106962;28;20032;-68
2023/09/19 10:48:03;;;;;;;6.18;1.77;;;18.30;99.90;;;;;;5105208;28;20058;-68
2023/09/19 10:50:46;;;;;;;4.10;1.63;;;18.50;99.90;;;;;;5108948;28;20047;-69
2023/09/19 10:53:13;;;;;;;5.65;1.60;;;18.70;99.90;;;;;;5095143;28;20602;-67
2023/09/19 10:55:40;;;;;;;4.20;1.73;;;18.80;99.90;;;;;;5088475;28;20032;-67
2023/09/19 10:58:14;;;;;;;5.20;1.70;;;18.50;99.90;;;;;;5105514;28;20554;-68
2023/09/19 11:00:55;;;;;;;4.70;1.75;;;18.70;99.90;;;;;;5107904;28;20031;-69
2023/09/19 11:03:23;;;;;;;3.28;1.80;;;18.90;99.90;;;;;;5106484;28;20028;-69
2023/09/19 11:06:09;;;;;;;6.15;1.40;;;18.90;99.90;;;;;;5107378;28;20757;-70
2023/09/19 11:11:42;;;;;;;3.38;1.63;;;19.30;99.90;;;;;;5108858;28;20082;-70
2023/09/19 11:14:23;;;;;;;2.92;1.70;;;19.60;99.90;;;;;;5107117;28;20035;-69
2023/09/19 11:17:17;;;;;;;5.00;1.65;;;19.50;99.90;;;;;;5097177;28;20025;-69
2023/09/19 11:22:51;;;;;;;2.92;1.52;;;19.60;99.90;;;;;;5107803;28;20044;-68
2023/09/19 11:25:34;;;;;;;3.17;1.50;;;19.60;99.90;;;;;;5088375;28;20028;-67
2023/09/19 11:28:06;;;;;;;3.70;1.60;;;19.80;99.90;;;;;;5085417;28;20043;-69
2023/09/19 11:30:37;;;;;;;6.40;1.58;;;20.00;99.90;;;;;;5094631;28;20030;-67
2023/09/19 11:33:28;;;;;;;3.03;1.70;;;20.00;99.90;;;;;;5073823;28;20035;-66
2023/09/19 11:36:09;;;;;;;4.53;1.73;;;19.70;99.90;;;;;;5095126;28;20062;-70
2023/09/19 11:38:44;;;;;;;3.55;1.60;;;19.60;99.90;;;;;;5102050;28;20032;-68
2023/09/19 11:41:26;;;;;;;2.20;1.25;;;19.60;99.90;;;;;;5095353;28;20036;-68
2023/09/19 11:43:58;;;;;;;6.50;1.23;;;19.50;99.90;;;;;;5099780;28;20411;-69
2023/09/19 11:46:24;;;;;;;2.15;1.20;;;19.40;99.90;;;;;;5101472;28;20042;-67
2023/09/19 11:48:51;;;;;;;2.55;1.30;;;19.50;99.90;;;;;;5108575;28;20062;-67
2023/09/19 11:51:23;;;;;;;3.30;1.50;;;19.20;99.90;;;;;;5106999;28;20166;-67
2023/09/19 11:53:53;;;;;;;2.15;1.20;;;19.40;99.90;;;;;;5111732;28;20558;-68
2023/09/19 11:56:23;;;;;;;4.30;1.40;;;19.90;99.90;;;;;;5110531;28;20047;-70
2023/09/19 11:58:53;;;;;;;2.25;1.27;;;20.50;99.90;;;;;;5107014;28;20035;-67
2023/09/19 12:01:31;;;;;;;3.53;1.27;;;20.70;99.90;;;;;;5107598;28;20077;-67
2023/09/19 12:03:59;;;;;;;4.15;1.52;;;20.90;99.90;;;;;;5103191;28;20027;-70
2023/09/19 12:06:35;;;;;;;2.72;1.15;;;20.30;99.90;;;;;;5110962;28;20480;-68
2023/09/19 12:09:06;;;;;;;6.85;1.58;;;20.20;99.90;;;;;;5110992;28;20027;-65
2023/09/19 12:11:33;;;;;;;3.58;1.15;;;19.90;99.90;;;;;;5109877;28;20036;-67
2023/09/19 12:14:00;;;;;;;4.00;1.20;;;19.80;99.90;;;;;;5110760;28;20027;-67
2023/09/19 12:16:30;;;;;;;2.17;1.10;;;19.70;99.90;;;;;;5110179;28;20024;-67
2023/09/19 12:18:57;;;;;;;2.30;1.02;;;19.80;99.90;;;;;;5095189;28;20120;-72
2023/09/19 12:21:27;;;;;;;3.47;1.10;;;20.40;99.90;;;;;;5110462;28;20027;-70
2023/09/19 12:24:20;;;;;;;2.78;1.05;;;20.50;99.90;;;;;;5111382;28;20035;-69
2023/09/19 12:26:52;;;;;;;4.38;1.00;;;20.70;99.90;;;;;;5102122;28;20193;-70
2023/09/19 12:29:20;;;;;;;3.85;0.95;;;21.20;99.90;;;;;;5102898;28;20039;-69
2023/09/19 12:31:59;;;;;;;1.95;0.98;;;21.20;99.90;;;;;;5101674;28;20118;-68
2023/09/19 12:34:27;;;;;;;2.08;1.10;;;21.40;99.90;;;;;;5104760;28;20028;-67
2023/09/19 12:37:12;;;;;;;5.72;1.40;;;21.40;99.90;;;;;;5109271;28;20040;-68
2023/09/19 12:39:43;;;;;;;1.65;1.10;;;21.10;99.90;;;;;;5100852;28;20024;-67
2023/09/19 12:42:10;;;;;;;6.72;1.23;;;21.00;99.90;;;;;;5109962;28;20062;-69
2023/09/19 12:44:40;;;;;;;2.20;1.30;;;21.00;99.90;;;;;;5104760;28;20024;-67
2023/09/19 12:47:19;;;;;;;4.28;1.50;;;21.00;99.90;;;;;;5108690;28;20771;-68
2023/09/19 12:50:18;;;;;;;1.77;0.90;;;20.80;99.90;;;;;;5109719;28;20031;-70
2023/09/19 12:52:49;;;;;;;3.90;1.23;;;20.90;99.90;;;;;;5108236;28;20043;-68
2023/09/19 12:55:32;;;;;;;1.60;0.98;;;21.10;99.90;;;;;;5104230;28;20043;-67
2023/09/19 12:58:15;;;;;;;2.40;1.33;;;21.50;99.90;;;;;;5109248;28;20035;-70
2023/09/19 13:00:44;;;;;;;3.88;1.30;;;21.70;99.90;;;;;;5107031;28;20472;-68
2023/09/19 13:03:37;;;;;;;4.97;1.20;;;21.90;99.90;;;;;;5108976;28;20042;-69
2023/09/19 13:06:07;;;;;;;2.47;1.00;;;21.80;99.90;;;;;;5105527;28;20070;-69
2023/09/19 13:08:38;;;;;;;7.80;1.33;;;21.80;99.90;;;;;;5110631;28;20499;-68
2023/09/19 13:11:06;;;;;;;4.30;1.15;;;22.00;99.90;;;;;;5109560;28;20040;-68